Time;durP1;ratioP1;P1;durP2;ratioP2;P2;SDS_P1;SDS_P2;PMS_P1;PMS_P2;Temp;Humidity;BMP_temperature;BMP_pressure;BME280_temperature;BME280_humidity;BME280_pressure;Samples;Min_cycle;Max_cycle;Signal;HPM_P1;HPM_P2
2022/11/07 00:02:49;;;;;;;;;;;;;;;10.06;94.62;99064.63;10375169;22;19997;-78
2022/11/07 00:06:51;;;;;;;;;;;;;;;10.10;94.87;99070.63;10355374;22;19927;-77
2022/11/07 00:10:53;;;;;;;;;;;;;;;10.16;95.28;99067.97;10354901;22;19981;-78
2022/11/07 00:14:54;;;;;;;;;;;;;;;10.22;95.01;99070.56;10382334;22;20455;-79
2022/11/07 00:18:55;;;;;;;;;;;;;;;10.27;95.14;99074.00;10347404;22;20072;-79
2022/11/07 00:22:57;;;;;;;;;;;;;;;10.33;94.84;99078.25;10354557;22;19938;-78
2022/11/07 00:26:58;;;;;;;;;;;;;;;10.39;94.83;99080.78;10378950;22;19926;-77
2022/11/07 00:31:00;;;;;;;;;;;;;;;10.44;94.49;99087.69;10344326;22;19947;-79
2022/11/07 00:35:02;;;;;;;;;;;;;;;10.48;94.67;99086.78;10340535;22;19923;-78
2022/11/07 00:39:04;;;;;;;;;;;;;;;10.49;94.41;99085.03;10375287;22;19947;-76
2022/11/07 00:43:06;;;;;;;;;;;;;;;10.52;94.46;99080.69;10350405;22;20357;-77
2022/11/07 00:47:07;;;;;;;;;;;;;;;10.51;94.28;99091.06;10315476;22;19924;-78
2022/11/07 00:51:10;;;;;;;;;;;;;;;10.52;94.33;99095.41;10324832;22;19980;-78
2022/11/07 00:55:12;;;;;;;;;;;;;;;10.55;94.34;99100.56;10378479;22;19931;-77
2022/11/07 00:59:13;;;;;;;;;;;;;;;10.57;94.62;99099.66;10351230;22;19972;-78
2022/11/07 01:07:35;;;;;;;;;;;;;;;10.58;93.88;99091.00;10350240;22;19984;-77
2022/11/07 01:11:37;;;;;;;;;;;;;;;10.56;93.81;99084.97;10349822;22;19923;-77
2022/11/07 01:15:39;;;;;;;;;;;;;;;10.53;93.92;99087.59;10369283;22;19971;-80
2022/11/07 01:19:40;;;;;;;;;;;;;;;10.53;94.17;99091.91;10353018;22;19981;-78
2022/11/07 01:23:42;;;;;;;;;;;;;;;10.51;94.48;99099.72;10353521;22;19933;-77
2022/11/07 01:27:43;;;;;;;;;;;;;;;10.54;94.36;99109.22;10352440;22;20266;-77
2022/11/07 01:31:45;;;;;;;;;;;;;;;10.56;94.63;99100.53;10344288;22;20584;-79
2022/11/07 01:35:46;;;;;;;;;;;;;;;10.54;94.57;99098.84;10351687;22;20207;-77
2022/11/07 01:39:48;;;;;;;;;;;;;;;10.53;94.35;99100.56;10380592;22;19988;-77
2022/11/07 01:44:07;;;;;;;;;;;;;;;10.50;94.12;99098.00;10351074;22;19977;-78
2022/11/07 01:48:09;;;;;;;;;;;;;;;10.48;94.33;99096.31;10319894;22;19981;-78
2022/11/07 01:52:13;;;;;;;;;;;;;;;10.43;94.20;99104.13;10352794;22;19923;-77
2022/11/07 01:56:16;;;;;;;;;;;;;;;10.39;94.01;99106.75;10352956;22;20008;-77
2022/11/07 02:00:18;;;;;;;;;;;;;;;10.33;94.20;99106.81;10345677;22;19983;-78
2022/11/07 02:04:22;;;;;;;;;;;;;;;10.28;94.41;99105.13;10350957;22;19984;-78
2022/11/07 02:08:24;;;;;;;;;;;;;;;10.22;94.40;99107.75;10352206;22;19927;-78
2022/11/07 02:12:26;;;;;;;;;;;;;;;10.18;94.59;99106.00;10351559;22;19977;-78
2022/11/07 02:16:27;;;;;;;;;;;;;;;10.14;94.90;99109.50;10320470;22;19976;-79
2022/11/07 02:20:28;;;;;;;;;;;;;;;10.14;94.84;99108.66;10354928;22;19923;-78
2022/11/07 02:24:32;;;;;;;;;;;;;;;10.14;95.40;99111.25;10381014;22;19927;-77
2022/11/07 02:28:35;;;;;;;;;;;;;;;10.16;95.37;99118.13;10354430;22;19923;-78
2022/11/07 02:32:37;;;;;;;;;;;;;;;10.15;95.35;99115.56;10347735;22;19996;-77
2022/11/07 02:36:38;;;;;;;;;;;;;;;10.18;95.44;99123.31;10354729;22;20233;-77
2022/11/07 02:40:40;;;;;;;;;;;;;;;10.15;94.97;99120.75;10354435;22;19924;-78
2022/11/07 02:44:41;;;;;;;;;;;;;;;10.16;94.83;99118.13;10329617;22;19962;-78
2022/11/07 02:48:47;;;;;;;;;;;;;;;10.13;94.89;99131.13;10347558;22;19927;-79
2022/11/07 02:52:48;;;;;;;;;;;;;;;10.12;94.89;99121.63;10355166;22;19931;-78
2022/11/07 02:56:50;;;;;;;;;;;;;;;10.11;94.86;99124.25;10354489;22;20372;-77
2022/11/07 03:00:51;;;;;;;;;;;;;;;10.07;94.59;99119.97;10322071;22;19923;-79
2022/11/07 03:04:53;;;;;;;;;;;;;;;10.05;94.62;99122.53;10360416;22;20596;-78
2022/11/07 03:08:54;;;;;;;;;;;;;;;10.03;94.40;99121.69;10359399;22;20355;-78
2022/11/07 03:12:56;;;;;;;;;;;;;;;9.99;94.60;99130.38;10333952;22;20397;-77
2022/11/07 03:16:57;;;;;;;;;;;;;;;9.94;94.57;99137.31;10377160;22;19967;-78
2022/11/07 03:20:59;;;;;;;;;;;;;;;9.92;94.70;99141.66;10358576;22;19924;-78
2022/11/07 03:25:00;;;;;;;;;;;;;;;9.83;94.75;99145.16;10358372;22;20013;-77
2022/11/07 03:29:02;;;;;;;;;;;;;;;9.83;94.66;99144.28;10355745;22;19923;-78
2022/11/07 03:33:03;;;;;;;;;;;;;;;9.80;95.02;99137.38;10326122;22;20402;-78
2022/11/07 03:37:04;;;;;;;;;;;;;;;9.80;95.04;99149.50;10382683;22;19943;-77
2022/11/07 03:41:06;;;;;;;;;;;;;;;9.77;95.16;99149.50;10356956;22;19923;-78
2022/11/07 03:45:08;;;;;;;;;;;;;;;9.72;95.34;99143.50;10350839;22;19967;-79
2022/11/07 03:49:09;;;;;;;;;;;;;;;9.70;95.27;99148.69;10383920;22;19930;-77
2022/11/07 03:53:10;;;;;;;;;;;;;;;9.72;95.34;99148.69;10355884;22;19923;-77
2022/11/07 03:57:13;;;;;;;;;;;;;;;9.72;95.47;99152.13;10358878;22;19924;-77
2022/11/07 04:01:14;;;;;;;;;;;;;;;9.71;95.14;99155.59;10348139;22;19939;-78
2022/11/07 04:05:16;;;;;;;;;;;;;;;9.72;95.29;99159.91;10379130;22;19938;-77
2022/11/07 04:09:17;;;;;;;;;;;;;;;9.72;95.29;99159.06;10378154;22;19923;-79
2022/11/07 04:17:38;;;;;;;;;;;;;;;9.69;95.63;99157.31;10344239;22;20547;-77
2022/11/07 04:21:40;;;;;;;;;;;;;;;9.69;95.78;99149.53;10350491;22;19980;-77
2022/11/07 04:30:18;;;;;;;;;;;;;;;9.74;95.50;99158.19;10375738;22;19923;-78
2022/11/07 04:34:21;;;;;;;;;;;;;;;9.77;95.67;99155.56;10376859;22;19951;-78
2022/11/07 04:38:22;;;;;;;;;;;;;;;9.82;95.94;99155.53;10378950;22;19923;-77
2022/11/07 04:42:24;;;;;;;;;;;;;;;9.84;95.47;99143.41;10351696;22;20002;-79
2022/11/07 04:46:25;;;;;;;;;;;;;;;9.86;95.70;99136.47;10344561;22;20316;-79
2022/11/07 04:50:28;;;;;;;;;;;;;;;9.89;95.67;99141.69;10378281;22;19923;-78
2022/11/07 04:54:29;;;;;;;;;;;;;;;9.92;95.61;99144.25;10351401;22;19923;-78
2022/11/07 04:58:30;;;;;;;;;;;;;;;9.96;95.26;99148.53;10326457;22;19919;-79
2022/11/07 05:02:32;;;;;;;;;;;;;;;9.97;95.24;99148.53;10346388;22;19931;-77
2022/11/07 05:06:34;;;;;;;;;;;;;;;9.97;95.22;99147.66;10378348;22;19984;-78
2022/11/07 05:10:36;;;;;;;;;;;;;;;9.96;95.21;99148.53;10352388;22;20601;-77
2022/11/07 05:14:37;;;;;;;;;;;;;;;9.93;95.08;99145.97;10326307;22;19930;-77
2022/11/07 05:18:38;;;;;;;;;;;;;;;9.92;95.13;99142.50;10344422;22;19966;-77
2022/11/07 05:27:01;;;;;;;;;;;;;;;9.87;94.49;99154.63;10350949;22;19977;-77
2022/11/07 05:31:03;;;;;;;;;;;;;;;9.83;94.68;99155.53;10368118;22;19933;-77
2022/11/07 05:35:05;;;;;;;;;;;;;;;9.77;94.51;99160.75;10351294;22;19942;-77
2022/11/07 05:39:06;;;;;;;;;;;;;;;9.75;95.06;99164.22;10326467;22;19980;-78
2022/11/07 05:43:09;;;;;;;;;;;;;;;9.72;95.02;99165.09;10326754;22;19973;-77
2022/11/07 05:47:10;;;;;;;;;;;;;;;9.69;94.80;99180.66;10319141;22;20196;-80
2022/11/07 05:51:11;;;;;;;;;;;;;;;9.69;95.45;99181.53;10325984;22;20439;-77
2022/11/07 05:55:13;;;;;;;;;;;;;;;9.71;96.06;99178.06;10329162;22;19930;-76
2022/11/07 05:59:14;;;;;;;;;;;;;;;9.71;96.55;99183.25;10355116;22;19919;-80
2022/11/07 06:03:18;;;;;;;;;;;;;;;9.71;96.42;99186.72;10347245;22;19927;-79
2022/11/07 06:07:20;;;;;;;;;;;;;;;9.75;96.02;99179.78;10380712;22;20462;-78
2022/11/07 06:11:22;;;;;;;;;;;;;;;9.76;95.84;99176.31;10381458;22;19995;-78
2022/11/07 06:15:24;;;;;;;;;;;;;;;9.79;95.70;99173.69;10356112;22;19923;-77
2022/11/07 06:19:25;;;;;;;;;;;;;;;9.79;95.89;99173.69;10357853;22;19927;-80
2022/11/07 06:23:27;;;;;;;;;;;;;;;9.79;96.01;99171.09;10357219;22;20258;-78
2022/11/07 06:27:29;;;;;;;;;;;;;;;9.79;95.74;99173.69;10356168;22;19923;-79
2022/11/07 06:31:30;;;;;;;;;;;;;;;9.74;95.13;99168.53;10350361;22;19966;-78
2022/11/07 06:35:33;;;;;;;;;;;;;;;9.74;95.47;99178.06;10358710;22;20006;-80
2022/11/07 06:39:35;;;;;;;;;;;;;;;9.73;95.25;99187.56;10384330;22;19923;-79
2022/11/07 06:43:37;;;;;;;;;;;;;;;9.75;95.58;99190.16;10357699;22;19957;-79
2022/11/07 06:47:38;;;;;;;;;;;;;;;9.77;95.56;99188.41;10324477;22;19999;-79
2022/11/07 06:51:41;;;;;;;;;;;;;;;9.79;95.49;99184.06;10357233;22;19965;-79
2022/11/07 06:55:48;;;;;;;;;;;;;;;9.80;95.07;99188.38;10357243;22;20570;-79
2022/11/07 06:59:51;;;;;;;;;;;;;;;9.82;95.27;99192.69;10382618;22;19970;-79
2022/11/07 07:03:52;;;;;;;;;;;;;;;9.84;95.17;99195.28;10329221;22;19930;-82
2022/11/07 07:07:56;;;;;;;;;;;;;;;9.84;94.86;99198.72;10399632;22;19919;-81
2022/11/07 07:11:57;;;;;;;;;;;;;;;9.86;94.69;99206.50;10365060;22;20295;-84
2022/11/07 07:15:59;;;;;;;;;;;;;;;9.90;94.85;99218.59;10383728;22;19981;-83
2022/11/07 07:20:03;;;;;;;;;;;;;;;9.94;94.77;99217.72;10399508;22;19923;-87
2022/11/07 07:24:06;;;;;;;;;;;;;;;9.96;95.00;99227.22;10380665;22;19931;-85
2022/11/07 07:28:07;;;;;;;;;;;;;;;9.97;94.86;99215.97;10350779;22;19927;-85
2022/11/07 07:32:10;;;;;;;;;;;;;;;10.02;94.26;99222.84;10395455;22;19923;-87
2022/11/07 07:36:11;;;;;;;;;;;;;;;10.07;94.16;99231.50;10348548;22;19919;-84
2022/11/07 07:40:20;;;;;;;;;;;;;;;10.12;94.09;99230.59;10350229;22;20307;-88
2022/11/07 07:44:22;;;;;;;;;;;;;;;10.20;93.73;99239.19;10349622;22;19969;-86
2022/11/07 07:48:24;;;;;;;;;;;;;;;10.28;93.92;99247.84;10396790;22;19919;-88
2022/11/07 07:52:25;;;;;;;;;;;;;;;10.36;93.49;99244.31;10349798;22;19919;-87
2022/11/07 07:56:27;;;;;;;;;;;;;;;10.45;93.77;99244.28;10371330;22;20093;-82
2022/11/07 08:00:28;;;;;;;;;;;;;;;10.51;93.39;99247.69;10357348;22;19924;-82
2022/11/07 08:04:29;;;;;;;;;;;;;;;10.62;92.81;99244.19;10405661;22;19984;-83
2022/11/07 08:08:31;;;;;;;;;;;;;;;10.67;92.03;99245.84;10374970;22;19923;-87
2022/11/07 08:12:42;;;;;;;;;;;;;;;10.74;91.59;99244.94;10374505;22;19923;-83
2022/11/07 08:16:44;;;;;;;;;;;;;;;10.80;91.42;99246.63;10358900;22;19920;-81
2022/11/07 08:20:45;;;;;;;;;;;;;;;10.84;91.21;99258.72;10337897;22;20310;-80
2022/11/07 08:24:47;;;;;;;;;;;;;;;10.86;90.59;99257.84;10387335;22;19923;-78
2022/11/07 08:28:48;;;;;;;;;;;;;;;10.90;90.20;99267.31;10360802;22;19950;-78
2022/11/07 08:32:50;;;;;;;;;;;;;;;10.95;89.91;99261.22;10361027;22;19923;-80
2022/11/07 08:36:51;;;;;;;;;;;;;;;11.01;89.63;99264.66;10359685;22;20302;-79
2022/11/07 08:40:53;;;;;;;;;;;;;;;11.10;89.45;99267.16;10338828;22;19923;-80
2022/11/07 08:44:54;;;;;;;;;;;;;;;11.12;89.14;99265.41;10363827;22;19969;-80
2022/11/07 08:48:55;;;;;;;;;;;;;;;11.14;88.85;99273.22;10329433;22;20487;-79
2022/11/07 08:53:10;;;;;;;;;;;;;;;11.15;88.03;99264.53;10363163;22;20474;-82
2022/11/07 08:58:14;;;;;;;;;;;;;;;11.31;88.23;99273.91;10374506;22;19919;-81
2022/11/07 09:02:54;;;;;;;;;;;;;;;11.60;88.13;99264.94;10339933;22;19962;-81
2022/11/07 09:07:38;;;;;;;;;;;;;;;11.89;88.05;99267.28;10387710;22;20417;-81
2022/11/07 09:11:59;;;;;;;;;;;;;;;12.17;86.53;99268.63;10356199;22;19923;-81
2022/11/07 09:16:53;;;;;;;;;;;;;;;12.44;85.19;99263.97;10347532;22;19930;-79
2022/11/07 09:21:00;;;;;;;;;;;;;;;12.69;84.56;99263.56;10380211;22;19923;-79
2022/11/07 09:25:03;;;;;;;;;;;;;;;12.90;82.92;99275.41;10355950;22;19942;-79
2022/11/07 09:29:04;;;;;;;;;;;;;;;12.94;81.67;99263.22;10357546;22;20578;-79
2022/11/07 09:33:07;;;;;;;;;;;;;;;12.94;81.07;99266.69;10351657;22;19919;-80
2022/11/07 09:37:08;;;;;;;;;;;;;;;13.02;81.46;99263.94;10382444;22;19937;-80
2022/11/07 09:41:15;;;;;;;;;;;;;;;13.02;80.99;99279.56;10356834;22;19923;-79
2022/11/07 14:34:19;;;;;;;;;;;;;;;13.32;87.09;99235.66;10366812;22;19927;-81
2022/11/07 14:38:37;;;;;;;;;;;;;;;13.21;88.01;99243.66;10280247;23;19967;-80
2022/11/07 14:43:18;;;;;;;;;;;;;;;13.14;89.77;99245.50;8591754;27;19918;-80
2022/11/07 14:47:32;;;;;;;;;;;;;;;13.17;90.16;99240.22;8514002;27;20030;-80
2022/11/07 14:51:54;;;;;;;;;;;;;;;13.15;90.51;99236.78;8489662;28;19928;-81
2022/11/07 14:56:47;;;;;;;;;;;;;;;13.10;91.16;99235.97;8502773;27;19923;-82
2022/11/07 15:02:20;;;;;;;;;;;;;;;13.05;90.95;99239.56;8353323;28;19909;-82
2022/11/07 15:07:16;;;;;;;;;;;;;;;12.97;91.69;99247.53;9450358;22;20014;31
2022/11/07 15:17:55;;;;;;;;;;;;;;;12.92;92.66;99238.88;10106055;23;19924;31
2022/11/07 15:22:41;;;;;;;;;;;;;;;12.88;92.78;99240.69;9929911;23;19925;31
2022/11/07 15:37:17;;;;;;;;;;;;;;;12.82;93.48;99234.72;9428938;23;20925;31
2022/11/07 15:42:42;;;;;;;;;;;;;;;12.77;93.73;99237.41;9913398;23;19925;31
2022/11/07 15:52:23;;;;;;;;;;;;;;;12.71;93.68;99242.72;8235109;26;19978;-89
2022/11/07 15:57:40;;;;;;;;;;;;;;;12.67;93.52;99239.28;8209733;29;19917;-90
2022/11/07 16:02:43;;;;;;;;;;;;;;;12.61;94.23;99242.00;8180738;28;19946;-86
2022/11/07 16:07:16;;;;;;;;;;;;;;;12.58;94.47;99247.25;8195671;28;19963;-82
2022/11/07 16:11:53;;;;;;;;;;;;;;;12.56;94.40;99245.53;8209231;28;20365;-89
2022/11/07 17:49:06;;;;;;;;;;;;;;;11.84;94.97;99246.50;9745606;23;19922;-87
2022/11/07 17:53:11;;;;;;;;;;;;;;;11.73;94.46;99253.53;7997544;29;19913;-90
2022/11/07 17:57:15;;;;;;;;;;;;;;;11.63;94.59;99251.91;7982638;29;19920;-87
2022/11/07 18:01:22;;;;;;;;;;;;;;;11.61;95.51;99253.66;7997640;29;19933;-87
2022/11/07 18:05:24;;;;;;;;;;;;;;;11.63;96.39;99257.97;8005670;29;19933;-87
2022/11/07 18:09:33;;;;;;;;;;;;;;;11.65;96.59;99256.22;7972622;29;19988;-82
2022/11/07 18:13:35;;;;;;;;;;;;;;;11.69;96.48;99249.25;7996261;29;19913;-88
2022/11/07 18:17:38;;;;;;;;;;;;;;;11.73;96.73;99250.94;8011700;29;19931;-89
2022/11/07 18:21:41;;;;;;;;;;;;;;;11.76;96.17;99245.69;8011614;29;19913;-89
2022/11/07 18:25:59;;;;;;;;;;;;;;;11.78;96.40;99242.22;8025063;29;19929;-91
2022/11/07 18:30:03;;;;;;;;;;;;;;;11.83;96.29;99242.16;7965860;29;19956;-87
2022/11/07 18:34:08;;;;;;;;;;;;;;;11.91;95.19;99239.50;7972546;29;19920;-88
2022/11/07 18:38:15;;;;;;;;;;;;;;;11.96;94.72;99237.69;7996809;29;19976;-88
2022/11/07 18:42:35;;;;;;;;;;;;;;;12.03;94.09;99241.97;7994210;29;19913;-87
2022/11/07 18:46:39;;;;;;;;;;;;;;;12.06;93.39;99247.13;7996631;29;19914;-88
2022/11/07 18:50:42;;;;;;;;;;;;;;;12.07;92.81;99244.50;7993885;29;19913;-87
2022/11/07 18:54:49;;;;;;;;;;;;;;;12.05;93.04;99237.59;8026293;29;19920;-86
2022/11/07 18:58:54;;;;;;;;;;;;;;;12.03;93.12;99235.00;8366398;24;19919;-90
2022/11/07 19:03:00;;;;;;;;;;;;;;;11.98;93.07;99228.97;8032135;29;19936;-90
2022/11/07 19:07:08;;;;;;;;;;;;;;;11.93;92.98;99232.53;8024547;29;19970;-94
2022/11/07 19:11:15;;;;;;;;;;;;;;;11.87;93.26;99232.63;8034225;29;19931;-93
2022/11/07 19:15:23;;;;;;;;;;;;;;;11.83;93.43;99230.91;8024342;29;19942;-92
2022/11/07 19:19:25;;;;;;;;;;;;;;;11.82;94.28;99234.38;8028237;29;19924;-93
2022/11/07 19:23:28;;;;;;;;;;;;;;;11.83;94.27;99242.16;7999011;29;19936;-92
2022/11/07 19:27:33;;;;;;;;;;;;;;;11.85;94.40;99239.56;8034242;29;19976;-87
2022/11/07 19:31:38;;;;;;;;;;;;;;;11.82;93.92;99235.25;8061655;29;19943;-88
2022/11/07 19:35:40;;;;;;;;;;;;;;;11.82;94.39;99237.00;8036132;29;19939;-92
2022/11/07 19:39:43;;;;;;;;;;;;;;;11.77;94.31;99229.22;8000938;29;19913;-87
2022/11/07 19:43:50;;;;;;;;;;;;;;;11.76;94.68;99237.91;8001122;29;19920;-90
2022/11/07 19:47:52;;;;;;;;;;;;;;;11.75;94.40;99226.63;8012630;29;19965;-88
2022/11/07 19:51:56;;;;;;;;;;;;;;;11.77;94.89;99230.06;8030904;29;19912;-89
2022/11/07 19:56:07;;;;;;;;;;;;;;;11.75;94.38;99237.03;8031052;29;19968;-86
2022/11/07 20:00:10;;;;;;;;;;;;;;;11.71;94.58;99222.34;8033605;29;19920;-89
2022/11/07 20:04:12;;;;;;;;;;;;;;;11.64;94.71;99232.81;8045922;29;19920;-86
2022/11/07 20:08:15;;;;;;;;;;;;;;;11.58;94.83;99238.97;8044828;29;19929;-91
2022/11/07 20:12:17;;;;;;;;;;;;;;;11.52;95.47;99233.84;8064209;29;19937;-87
2022/11/07 20:16:18;;;;;;;;;;;;;;;11.49;95.35;99233.88;8045363;29;19912;-89
2022/11/07 20:20:21;;;;;;;;;;;;;;;11.43;95.95;99232.19;8045219;29;19912;-86
2022/11/07 20:24:22;;;;;;;;;;;;;;;11.39;96.11;99229.66;8035437;29;19923;-88
2022/11/07 20:28:25;;;;;;;;;;;;;;;11.42;96.35;99227.00;8065070;29;19972;-86
2022/11/07 21:27:57;;;;;;;;;;;;;;;11.40;96.54;99197.56;9290876;24;19933;-92
2022/11/07 21:31:59;;;;;;;;;;;;;;;11.32;96.04;99200.25;8025340;29;19975;-87
2022/11/07 21:36:06;;;;;;;;;;;;;;;11.22;96.57;99193.44;8011329;29;19928;-88
2022/11/07 21:40:09;;;;;;;;;;;;;;;11.15;96.63;99191.78;8017323;29;19967;-91
2022/11/07 21:44:11;;;;;;;;;;;;;;;11.09;96.43;99191.81;8012083;29;19947;-91
2022/11/07 21:48:15;;;;;;;;;;;;;;;11.02;96.83;99200.56;7988977;29;19933;-90
2022/11/07 21:52:17;;;;;;;;;;;;;;;10.99;97.73;99193.66;7993684;29;19957;-91
2022/11/07 21:56:23;;;;;;;;;;;;;;;10.97;98.03;99187.63;7983186;29;19982;-90
2022/11/07 22:00:25;;;;;;;;;;;;;;;10.91;97.72;99185.06;7997084;29;19933;-91
2022/11/07 22:04:26;;;;;;;;;;;;;;;10.82;97.50;99178.22;8007107;29;19969;-89
2022/11/07 22:08:28;;;;;;;;;;;;;;;10.73;97.75;99170.50;8024593;29;19943;-88
2022/11/07 22:12:29;;;;;;;;;;;;;;;10.66;97.49;99163.66;8008805;29;20015;-90
2022/11/07 22:16:30;;;;;;;;;;;;;;;10.57;97.88;99161.97;7983886;29;19940;-86
2022/11/07 22:20:33;;;;;;;;;;;;;;;10.53;98.85;99156.81;8009586;29;19929;-88
2022/11/07 22:24:34;;;;;;;;;;;;;;;10.53;99.24;99159.41;8002555;29;19928;-91
2022/11/07 22:28:35;;;;;;;;;;;;;;;10.45;98.92;99143.91;7992433;29;19996;-88
2022/11/07 22:32:43;;;;;;;;;;;;;;;10.35;98.61;99138.78;8009852;29;19928;-88
2022/11/07 22:36:45;;;;;;;;;;;;;;;10.26;98.57;99132.81;8011997;29;20388;-88
2022/11/07 22:40:46;;;;;;;;;;;;;;;10.19;98.30;99133.69;8026917;29;19932;-89
2022/11/07 22:44:47;;;;;;;;;;;;;;;10.16;99.09;99127.66;8008402;29;19939;-92
2022/11/07 22:48:50;;;;;;;;;;;;;;;10.06;98.99;99123.44;8010001;29;19957;-89
2022/11/07 22:52:51;;;;;;;;;;;;;;;9.97;98.95;99120.00;8012936;29;19948;-86
2022/11/07 22:56:53;;;;;;;;;;;;;;;9.95;99.25;99120.88;8033032;29;19944;-89
2022/11/07 23:00:54;;;;;;;;;;;;;;;9.94;100.00;99112.25;8024284;29;19975;-89
2022/11/07 23:04:56;;;;;;;;;;;;;;;9.91;100.00;99098.44;7998075;29;19932;-85
2022/11/07 23:08:57;;;;;;;;;;;;;;;9.85;99.91;99107.09;8027634;29;19928;-88
2022/11/07 23:12:59;;;;;;;;;;;;;;;9.80;100.00;99095.03;8037260;29;21176;-87
2022/11/07 23:17:00;;;;;;;;;;;;;;;9.78;100.00;99102.84;8013193;29;19932;-87
2022/11/07 23:21:10;;;;;;;;;;;;;;;9.78;100.00;99096.78;8024178;29;19956;-86
2022/11/07 23:25:12;;;;;;;;;;;;;;;9.74;100.00;99100.28;8040937;29;19913;-87
2022/11/07 23:29:14;;;;;;;;;;;;;;;9.65;100.00;99096.84;8039840;29;19912;-91
2022/11/07 23:33:16;;;;;;;;;;;;;;;9.63;100.00;99089.94;8016426;29;19928;-86
2022/11/07 23:37:17;;;;;;;;;;;;;;;9.59;100.00;99094.31;8029961;29;19933;-85
2022/11/07 23:41:18;;;;;;;;;;;;;;;9.49;99.84;99089.16;8040401;29;19976;-87
